^^
Station Historical Data
Daily Summary for February 15, 2018 Units:  Both    English   Metric
« Previous Day
Next Day »
Daily Weekly Monthly Yearly Custom
  High: Low: Average:
Temperature: TemperatureF °F /  -17.8 °C 70.0 °F /  21.1 °C 77.5 °F /  25.3 °C
Dew Point: DewpointF °F /  -17.8 °C 40.3 °F /  4.6 °C 45 °F /  7.2 °C
Humidity: Humidity% 26% 31%
Wind Speed: WindSpeedMPHmph /  0km/h - -13.1mph /  -21.1km/h
Wind Gust: WindSpeedGustMPHmph /  0km/h - -
Wind- -
Pressure: PressureIn in /  0 hPa 29.52 in /  999.5 hPa -
Precipitation: 0.00 in /  0 mm    
Historical Graphs
 
 
Tabular Data for February 15, 2018
Time Temperature Dew Point Pressure Wind Wind Speed Wind Gust Humidity Rainfall Rate (Hourly) solar Conditions
TemperatureF °F /  -17.8 °C DewpointF °F /  -17.8 °C PressureInin /  0hPa Calm     Humidity% HourlyPrecipInin /  0mm SoftwareType W/m2 Conditions
08:26 70.0 °F /  21.1 °C 41.0 °F /  5 °C 29.65in /  1003.9hPa Calm     35% 0.00in /  0mm meteobridge W/m2
08:38 72.7 °F /  22.6 °C 40.3 °F /  4.6 °C 29.66in /  1004.3hPa Calm   1.0mph /  1.6km/h 31% 0.00in /  0mm meteobridge W/m2
08:45 72.7 °F /  22.6 °C 41.2 °F /  5.1 °C 29.66in /  1004.3hPa ESE 0.9mph /  1.4km/h 3.0mph /  4.8km/h 32% 0.00in /  0mm meteobridge W/m2
08:51 72.7 °F /  22.6 °C 41.2 °F /  5.1 °C 29.67in /  1004.6hPa ESE 2.0mph /  3.2km/h 2.0mph /  3.2km/h 32% 0.00in /  0mm meteobridge W/m2
08:57 73.0 °F /  22.8 °C 42.3 °F /  5.7 °C 29.67in /  1004.6hPa Calm   2.0mph /  3.2km/h 33% 0.00in /  0mm meteobridge W/m2
09:03 73.2 °F /  22.9 °C 43.9 °F /  6.6 °C 29.67in /  1004.6hPa SSW 2.0mph /  3.2km/h 4.0mph /  6.4km/h 35% 0.00in /  0mm meteobridge W/m2
09:09 74.1 °F /  23.4 °C 42.4 °F /  5.8 °C 29.67in /  1004.6hPa NW 0.9mph /  1.4km/h 2.0mph /  3.2km/h 32% 0.00in /  0mm meteobridge W/m2
09:30 73.9 °F /  23.3 °C 42.3 °F /  5.7 °C 29.67in /  1004.6hPa South 6.9mph /  11.1km/h 10.0mph /  16.1km/h 32% 0.00in /  0mm meteobridge W/m2
09:36 73.8 °F /  23.2 °C 42.8 °F /  6 °C 29.67in /  1004.6hPa South 12.1mph /  19.5km/h 12.1mph /  19.5km/h 33% 0.00in /  0mm meteobridge W/m2
09:42 73.9 °F /  23.3 °C 43.0 °F /  6.1 °C 29.67in /  1004.6hPa South 2.9mph /  4.7km/h 12.0mph /  19.3km/h 33% 0.00in /  0mm meteobridge W/m2
09:48 74.1 °F /  23.4 °C 42.4 °F /  5.8 °C 29.67in /  1004.6hPa South 6.9mph /  11.1km/h 9.0mph /  14.5km/h 32% 0.00in /  0mm meteobridge W/m2
09:54 74.8 °F /  23.8 °C 43.0 °F /  6.1 °C 29.67in /  1004.6hPa SSE 2.0mph /  3.2km/h 7.0mph /  11.3km/h 32% 0.00in /  0mm meteobridge W/m2
10:00 75.4 °F /  24.1 °C 44.2 °F /  6.8 °C 29.67in /  1004.6hPa South 2.9mph /  4.7km/h 4.0mph /  6.4km/h 33% 0.00in /  0mm meteobridge W/m2
10:06 75.6 °F /  24.2 °C 45.1 °F /  7.3 °C 29.67in /  1004.6hPa SSE 4.0mph /  6.4km/h 14.0mph /  22.5km/h 34% 0.00in /  0mm meteobridge W/m2
10:12 75.6 °F /  24.2 °C 44.4 °F /  6.9 °C 29.66in /  1004.3hPa South 8.1mph /  13km/h 12.0mph /  19.3km/h 33% 0.00in /  0mm meteobridge W/m2
10:18 75.2 °F /  24 °C 45.7 °F /  7.6 °C 29.66in /  1004.3hPa SSE 10.1mph /  16.3km/h 11.0mph /  17.7km/h 35% 0.00in /  0mm meteobridge W/m2
10:24 75.7 °F /  24.3 °C 45.3 °F /  7.4 °C 29.66in /  1004.3hPa South 8.9mph /  14.3km/h 9.0mph /  14.5km/h 34% 0.00in /  0mm meteobridge W/m2
10:30 76.1 °F /  24.5 °C 46.4 °F /  8 °C 29.66in /  1004.3hPa SE 12.1mph /  19.5km/h 13.0mph /  20.9km/h 35% 0.00in /  0mm meteobridge W/m2
10:36 76.3 °F /  24.6 °C 46.6 °F /  8.1 °C 29.66in /  1004.3hPa ESE 2.0mph /  3.2km/h 10.0mph /  16.1km/h 35% 0.00in /  0mm meteobridge W/m2
10:43 76.6 °F /  24.8 °C 46.2 °F /  7.9 °C 29.66in /  1004.3hPa South 4.9mph /  7.9km/h 12.0mph /  19.3km/h 34% 0.00in /  0mm meteobridge W/m2
10:49 75.9 °F /  24.4 °C 46.2 °F /  7.9 °C 29.66in /  1004.3hPa South 6.0mph /  9.7km/h 12.0mph /  19.3km/h 35% 0.00in /  0mm meteobridge W/m2
10:55 76.5 °F /  24.7 °C 47.5 °F /  8.6 °C 29.66in /  1004.3hPa South 2.9mph /  4.7km/h 10.0mph /  16.1km/h 36% 0.00in /  0mm meteobridge W/m2
11:01 76.6 °F /  24.8 °C 46.9 °F /  8.3 °C 29.66in /  1004.3hPa SE 4.0mph /  6.4km/h 12.0mph /  19.3km/h 35% 0.00in /  0mm meteobridge W/m2
11:07 77.2 °F /  25.1 °C 45.0 °F /  7.2 °C 29.65in /  1003.9hPa SE 2.0mph /  3.2km/h 5.0mph /  8km/h 32% 0.00in /  0mm meteobridge W/m2
11:13 78.3 °F /  25.7 °C 47.7 °F /  8.7 °C 29.65in /  1003.9hPa SSE 0.9mph /  1.4km/h 5.0mph /  8km/h 34% 0.00in /  0mm meteobridge W/m2
11:20 77.9 °F /  25.5 °C 47.3 °F /  8.5 °C 29.65in /  1003.9hPa South 4.9mph /  7.9km/h 14.0mph /  22.5km/h 34% 0.00in /  0mm meteobridge W/m2
11:26 77.9 °F /  25.5 °C 47.3 °F /  8.5 °C 29.65in /  1003.9hPa SSE 8.9mph /  14.3km/h 14.0mph /  22.5km/h 34% 0.00in /  0mm meteobridge W/m2
11:32 78.3 °F /  25.7 °C 46.8 °F /  8.2 °C 29.65in /  1003.9hPa SSW 4.0mph /  6.4km/h 13.0mph /  20.9km/h 33% 0.00in /  0mm meteobridge W/m2
11:38 77.7 °F /  25.4 °C 47.1 °F /  8.4 °C 29.65in /  1003.9hPa SSE 4.9mph /  7.9km/h 9.0mph /  14.5km/h 34% 0.00in /  0mm meteobridge W/m2
11:44 78.4 °F /  25.8 °C 46.9 °F /  8.3 °C 29.65in /  1003.9hPa SSE 8.1mph /  13km/h 9.0mph /  14.5km/h 33% 0.00in /  0mm meteobridge W/m2
11:50 78.6 °F /  25.9 °C 47.8 °F /  8.8 °C 29.65in /  1003.9hPa Calm   3.0mph /  4.8km/h 34% 0.00in /  0mm meteobridge W/m2
11:56 79.2 °F /  26.2 °C 49.1 °F /  9.5 °C 29.64in /  1003.6hPa South 6.0mph /  9.7km/h 12.0mph /  19.3km/h 35% 0.00in /  0mm meteobridge W/m2
12:02 79.0 °F /  26.1 °C 48.2 °F /  9 °C 29.64in /  1003.6hPa ESE 2.9mph /  4.7km/h 7.0mph /  11.3km/h 34% 0.00in /  0mm meteobridge W/m2
12:09 79.2 °F /  26.2 °C 47.7 °F /  8.7 °C 29.64in /  1003.6hPa South 6.9mph /  11.1km/h 16.0mph /  25.7km/h 33% 0.00in /  0mm meteobridge W/m2
12:15 78.3 °F /  25.7 °C 46.8 °F /  8.2 °C 29.63in /  1003.3hPa SSE 4.0mph /  6.4km/h 13.0mph /  20.9km/h 33% 0.00in /  0mm meteobridge W/m2
12:33 79.3 °F /  26.3 °C 46.9 °F /  8.3 °C 29.63in /  1003.3hPa South 4.9mph /  7.9km/h 9.0mph /  14.5km/h 32% 0.00in /  0mm meteobridge W/m2
12:39 79.3 °F /  26.3 °C 46.9 °F /  8.3 °C 29.62in /  1002.9hPa South 8.9mph /  14.3km/h 15.0mph /  24.1km/h 32% 0.00in /  0mm meteobridge W/m2
12:45 79.2 °F /  26.2 °C 47.7 °F /  8.7 °C 29.62in /  1002.9hPa SE 6.0mph /  9.7km/h 11.0mph /  17.7km/h 33% 0.00in /  0mm meteobridge W/m2
12:52 80.1 °F /  26.7 °C 50.0 °F /  10 °C 29.62in /  1002.9hPa South 6.9mph /  11.1km/h 7.0mph /  11.3km/h 35% 0.00in /  0mm meteobridge W/m2
12:58 80.1 °F /  26.7 °C 50.0 °F /  10 °C 29.62in /  1002.9hPa SE 12.1mph /  19.5km/h 14.0mph /  22.5km/h 35% 0.00in /  0mm meteobridge W/m2
13:04 79.5 °F /  26.4 °C 46.2 °F /  7.9 °C 29.62in /  1002.9hPa South 6.0mph /  9.7km/h 12.0mph /  19.3km/h 31% 0.00in /  0mm meteobridge W/m2
13:10 79.9 °F /  26.6 °C 46.6 °F /  8.1 °C 29.62in /  1002.9hPa SSW 4.0mph /  6.4km/h 5.0mph /  8km/h 31% 0.00in /  0mm meteobridge W/m2
13:16 81.0 °F /  27.2 °C 48.4 °F /  9.1 °C 29.62in /  1002.9hPa SSE 6.9mph /  11.1km/h 14.0mph /  22.5km/h 32% 0.00in /  0mm meteobridge W/m2
13:22 80.8 °F /  27.1 °C 46.4 °F /  8 °C 29.62in /  1002.9hPa South 2.9mph /  4.7km/h 15.0mph /  24.1km/h 30% 0.00in /  0mm meteobridge W/m2
13:28 81.0 °F /  27.2 °C 48.4 °F /  9.1 °C 29.62in /  1002.9hPa SSE 12.1mph /  19.5km/h 13.0mph /  20.9km/h 32% 0.00in /  0mm meteobridge W/m2
13:34 80.4 °F /  26.9 °C 45.3 °F /  7.4 °C 29.61in /  1002.6hPa South 2.9mph /  4.7km/h 6.0mph /  9.7km/h 29% 0.00in /  0mm meteobridge W/m2
13:40 80.4 °F /  26.9 °C 45.3 °F /  7.4 °C 29.60in /  1002.3hPa South 2.9mph /  4.7km/h 5.0mph /  8km/h 29% 0.00in /  0mm meteobridge W/m2
13:47 80.4 °F /  26.9 °C 47.8 °F /  8.8 °C 29.59in /  1001.9hPa South 4.0mph /  6.4km/h 11.0mph /  17.7km/h 32% 0.00in /  0mm meteobridge W/m2
13:53 81.0 °F /  27.2 °C 48.4 °F /  9.1 °C 29.60in /  1002.3hPa SSE 6.0mph /  9.7km/h 14.0mph /  22.5km/h 32% 0.00in /  0mm meteobridge W/m2
13:59 81.1 °F /  27.3 °C 47.7 °F /  8.7 °C 29.59in /  1001.9hPa SSE 6.0mph /  9.7km/h 8.0mph /  12.9km/h 31% 0.00in /  0mm meteobridge W/m2
14:05 82.2 °F /  27.9 °C 49.5 °F /  9.7 °C 29.59in /  1001.9hPa South 2.9mph /  4.7km/h 14.0mph /  22.5km/h 32% 0.00in /  0mm meteobridge W/m2
14:11 82.6 °F /  28.1 °C 47.1 °F /  8.4 °C 29.59in /  1001.9hPa SSE 8.1mph /  13km/h 10.0mph /  16.1km/h 29% 0.00in /  0mm meteobridge W/m2
14:35 81.0 °F /  27.2 °C 46.6 °F /  8.1 °C 29.58in /  1001.6hPa South 4.9mph /  7.9km/h 11.0mph /  17.7km/h 30% 0.00in /  0mm meteobridge W/m2
14:50 81.5 °F /  27.5 °C 48.0 °F /  8.9 °C 29.58in /  1001.6hPa SSE 2.9mph /  4.7km/h 12.0mph /  19.3km/h 31% 0.00in /  0mm meteobridge W/m2
14:56 81.1 °F /  27.3 °C 47.7 °F /  8.7 °C 29.57in /  1001.2hPa South 14.1mph /  22.7km/h 20.0mph /  32.2km/h 31% 0.00in /  0mm meteobridge W/m2
15:18 81.0 °F /  27.2 °C 46.6 °F /  8.1 °C 29.57in /  1001.2hPa South 6.9mph /  11.1km/h 10.0mph /  16.1km/h 30% 0.00in /  0mm meteobridge W/m2
15:24 81.9 °F /  27.7 °C 48.2 °F /  9 °C 29.57in /  1001.2hPa SSE 16.1mph /  25.9km/h 16.1mph /  25.9km/h 31% 0.00in /  0mm meteobridge W/m2
15:30 82.6 °F /  28.1 °C 48.0 °F /  8.9 °C 29.57in /  1001.2hPa SSW 6.9mph /  11.1km/h 11.0mph /  17.7km/h 30% 0.00in /  0mm meteobridge W/m2
15:36 82.2 °F /  27.9 °C 47.7 °F /  8.7 °C 29.56in /  1000.9hPa SSW 4.9mph /  7.9km/h 7.0mph /  11.3km/h 30% 0.00in /  0mm meteobridge W/m2
15:42 81.7 °F /  27.6 °C 46.4 °F /  8 °C 29.56in /  1000.9hPa South 4.0mph /  6.4km/h 10.0mph /  16.1km/h 29% 0.00in /  0mm meteobridge W/m2
15:49 81.1 °F /  27.3 °C 47.7 °F /  8.7 °C 29.55in /  1000.6hPa SE 8.9mph /  14.3km/h 13.0mph /  20.9km/h 31% 0.00in /  0mm meteobridge W/m2
15:55 82.6 °F /  28.1 °C 47.1 °F /  8.4 °C 29.55in /  1000.6hPa South 6.0mph /  9.7km/h 15.0mph /  24.1km/h 29% 0.00in /  0mm meteobridge W/m2
16:01 81.7 °F /  27.6 °C 47.3 °F /  8.5 °C 29.55in /  1000.6hPa SSE 6.9mph /  11.1km/h 17.0mph /  27.4km/h 30% 0.00in /  0mm meteobridge W/m2
16:07 81.9 °F /  27.7 °C 47.3 °F /  8.5 °C 29.54in /  1000.2hPa South 11.0mph /  17.7km/h 13.0mph /  20.9km/h 30% 0.00in /  0mm meteobridge W/m2
16:13 81.7 °F /  27.6 °C 46.4 °F /  8 °C 29.54in /  1000.2hPa SSW 15.0mph /  24.1km/h 15.0mph /  24.1km/h 29% 0.00in /  0mm meteobridge W/m2
16:19 79.5 °F /  26.4 °C 44.4 °F /  6.9 °C 29.54in /  1000.2hPa South 11.0mph /  17.7km/h 14.0mph /  22.5km/h 29% 0.00in /  0mm meteobridge W/m2
16:25 80.4 °F /  26.9 °C 45.3 °F /  7.4 °C 29.53in /  999.9hPa South 6.0mph /  9.7km/h 15.0mph /  24.1km/h 29% 0.00in /  0mm meteobridge W/m2
16:31 82.2 °F /  27.9 °C 46.8 °F /  8.2 °C 29.53in /  999.9hPa SSE 8.9mph /  14.3km/h 17.0mph /  27.4km/h 29% 0.00in /  0mm meteobridge W/m2
16:37 82.2 °F /  27.9 °C 45.0 °F /  7.2 °C 29.53in /  999.9hPa SSE 10.1mph /  16.3km/h 21.0mph /  33.8km/h 27% 0.00in /  0mm meteobridge W/m2
16:43 81.7 °F /  27.6 °C 46.4 °F /  8 °C 29.53in /  999.9hPa SSE 12.1mph /  19.5km/h 21.0mph /  33.8km/h 29% 0.00in /  0mm meteobridge W/m2
16:49 81.3 °F /  27.4 °C 43.2 °F /  6.2 °C 29.53in /  999.9hPa South 15.0mph /  24.1km/h 21.0mph /  33.8km/h 26% 0.00in /  0mm meteobridge W/m2
16:55 81.3 °F /  27.4 °C 45.1 °F /  7.3 °C 29.52in /  999.5hPa SSE 12.1mph /  19.5km/h 13.0mph /  20.9km/h 28% 0.00in /  0mm meteobridge W/m2
17:01 81.9 °F /  27.7 °C 45.5 °F /  7.5 °C 29.52in /  999.5hPa South 12.1mph /  19.5km/h 12.1mph /  19.5km/h 28% 0.00in /  0mm meteobridge W/m2
17:07 82.0 °F /  27.8 °C 44.8 °F /  7.1 °C 29.52in /  999.5hPa South 13.0mph /  20.9km/h 19.0mph /  30.6km/h 27% 0.00in /  0mm meteobridge W/m2
17:13 81.3 °F /  27.4 °C 45.1 °F /  7.3 °C 29.52in /  999.5hPa South 13.0mph /  20.9km/h 19.0mph /  30.6km/h 28% 0.00in /  0mm meteobridge W/m2
17:19 81.1 °F /  27.3 °C 45.0 °F /  7.2 °C 29.52in /  999.5hPa South 13.0mph /  20.9km/h 18.0mph /  29km/h 28% 0.00in /  0mm meteobridge W/m2
17:25 80.8 °F /  27.1 °C 44.6 °F /  7 °C 29.52in /  999.5hPa South 10.1mph /  16.3km/h 17.0mph /  27.4km/h 28% 0.00in /  0mm meteobridge W/m2
17:31 80.8 °F /  27.1 °C 43.7 °F /  6.5 °C 29.52in /  999.5hPa South 11.0mph /  17.7km/h 21.0mph /  33.8km/h 27% 0.00in /  0mm meteobridge W/m2
17:38 80.4 °F /  26.9 °C 44.2 °F /  6.8 °C 29.52in /  999.5hPa SSW 10.1mph /  16.3km/h 16.0mph /  25.7km/h 28% 0.00in /  0mm meteobridge W/m2
17:44 80.1 °F /  26.7 °C 44.1 °F /  6.7 °C 29.52in /  999.5hPa SSE 8.9mph /  14.3km/h 19.0mph /  30.6km/h 28% 0.00in /  0mm meteobridge W/m2
17:50 79.5 °F /  26.4 °C 43.5 °F /  6.4 °C 29.52in /  999.5hPa South 11.0mph /  17.7km/h 14.0mph /  22.5km/h 28% 0.00in /  0mm meteobridge W/m2
17:56 79.2 °F /  26.2 °C 43.2 °F /  6.2 °C 29.53in /  999.9hPa SSE 8.9mph /  14.3km/h 17.0mph /  27.4km/h 28% 0.00in /  0mm meteobridge W/m2
18:02 79.2 °F /  26.2 °C 43.2 °F /  6.2 °C 29.53in /  999.9hPa South 13.0mph /  20.9km/h 21.0mph /  33.8km/h 28% 0.00in /  0mm meteobridge W/m2
18:08 79.0 °F /  26.1 °C 44.1 °F /  6.7 °C 29.52in /  999.5hPa SSW 11.0mph /  17.7km/h 17.0mph /  27.4km/h 29% 0.00in /  0mm meteobridge W/m2
18:14 78.3 °F /  25.7 °C 43.3 °F /  6.3 °C 29.53in /  999.9hPa South 6.9mph /  11.1km/h 21.0mph /  33.8km/h 29% 0.00in /  0mm meteobridge W/m2
18:20 78.1 °F /  25.6 °C 44.1 °F /  6.7 °C 29.53in /  999.9hPa SSE 13.0mph /  20.9km/h 15.0mph /  24.1km/h 30% 0.00in /  0mm meteobridge W/m2
18:26 78.1 °F /  25.6 °C 43.2 °F /  6.2 °C 29.54in /  1000.2hPa South 8.1mph /  13km/h 20.0mph /  32.2km/h 29% 0.00in /  0mm meteobridge W/m2
18:32 77.4 °F /  25.2 °C 43.5 °F /  6.4 °C 29.54in /  1000.2hPa SSE 10.1mph /  16.3km/h 15.0mph /  24.1km/h 30% 0.00in /  0mm meteobridge W/m2
18:38 76.8 °F /  24.9 °C 43.0 °F /  6.1 °C 29.54in /  1000.2hPa SE 14.1mph /  22.7km/h 22.0mph /  35.4km/h 30% 0.00in /  0mm meteobridge W/m2
18:46 76.6 °F /  24.8 °C 42.8 °F /  6 °C 29.54in /  1000.2hPa SSE 6.0mph /  9.7km/h 14.0mph /  22.5km/h 30% 0.00in /  0mm meteobridge W/m2
18:53 76.1 °F /  24.5 °C 42.4 °F /  5.8 °C 29.54in /  1000.2hPa SSE 10.1mph /  16.3km/h 18.0mph /  29km/h 30% 0.00in /  0mm meteobridge W/m2
18:59 75.7 °F /  24.3 °C 43.7 °F /  6.5 °C 29.54in /  1000.2hPa SSW 6.9mph /  11.1km/h 12.0mph /  19.3km/h 32% 0.00in /  0mm meteobridge W/m2
19:05 75.4 °F /  24.1 °C 43.5 °F /  6.4 °C 29.55in /  1000.6hPa SSW 10.1mph /  16.3km/h 13.0mph /  20.9km/h 32% 0.00in /  0mm meteobridge W/m2
19:11 74.7 °F /  23.7 °C 42.8 °F /  6 °C 29.55in /  1000.6hPa SE 8.9mph /  14.3km/h 18.0mph /  29km/h 32% 0.00in /  0mm meteobridge W/m2
19:17 73.9 °F /  23.3 °C 43.0 °F /  6.1 °C 29.56in /  1000.9hPa SSE 8.1mph /  13km/h 13.0mph /  20.9km/h 33% 0.00in /  0mm meteobridge W/m2
19:23 73.8 °F /  23.2 °C 42.8 °F /  6 °C 29.57in /  1001.2hPa SE 6.9mph /  11.1km/h 7.0mph /  11.3km/h 33% 0.00in /  0mm meteobridge W/m2
19:30 73.8 °F /  23.2 °C 42.8 °F /  6 °C 29.56in /  1000.9hPa SE 6.9mph /  11.1km/h -999.0mph /  -1607.7km/h 33% 0.00in /  0mm meteobridge W/m2
19:36 73.8 °F /  23.2 °C 42.8 °F /  6 °C 29.57in /  1001.2hPa North -999.9mph /  -1609.1km/h -999.0mph /  -1607.7km/h 33% 0.00in /  0mm meteobridge W/m2
19:42 73.8 °F /  23.2 °C 42.8 °F /  6 °C 29.57in /  1001.2hPa North -999.9mph /  -1609.1km/h -999.0mph /  -1607.7km/h 33% 0.00in /  0mm meteobridge W/m2
Regenstein, Windhoek, Namibia
Compliments of Weather Underground - 2.5 mb